sensor_id;sensor_type;location;lat;lon;timestamp;temperature;humidity
55642;DHT22;41509;53.108;6.100;2023-03-01T00:01:30;1.10;99.90
55642;DHT22;41509;53.108;6.100;2023-03-01T00:03:58;1.00;99.90
55642;DHT22;41509;53.108;6.100;2023-03-01T00:06:25;1.00;99.90
55642;DHT22;41509;53.108;6.100;2023-03-01T00:08:51;1.00;99.90
55642;DHT22;41509;53.108;6.100;2023-03-01T00:11:23;0.90;99.90
55642;DHT22;41509;53.108;6.100;2023-03-01T00:13:51;0.90;99.90
55642;DHT22;41509;53.108;6.100;2023-03-01T00:16:26;0.90;99.90
55642;DHT22;41509;53.108;6.100;2023-03-01T00:18:54;0.90;99.90
55642;DHT22;41509;53.108;6.100;2023-03-01T00:21:20;0.90;99.90
55642;DHT22;41509;53.108;6.100;2023-03-01T00:23:47;0.80;99.90
55642;DHT22;41509;53.108;6.100;2023-03-01T00:26:14;0.80;99.90
55642;DHT22;41509;53.108;6.100;2023-03-01T00:28:41;0.80;99.90
55642;DHT22;41509;53.108;6.100;2023-03-01T00:31:12;0.80;99.90
55642;DHT22;41509;53.108;6.100;2023-03-01T00:33:39;0.70;99.90
55642;DHT22;41509;53.108;6.100;2023-03-01T00:36:05;0.80;99.90
55642;DHT22;41509;53.108;6.100;2023-03-01T00:38:35;0.70;99.90
55642;DHT22;41509;53.108;6.100;2023-03-01T00:41:05;0.70;99.90
55642;DHT22;41509;53.108;6.100;2023-03-01T00:43:31;0.70;99.90
55642;DHT22;41509;53.108;6.100;2023-03-01T00:46:06;0.60;99.90
55642;DHT22;41509;53.108;6.100;2023-03-01T00:48:32;0.60;99.90
55642;DHT22;41509;53.108;6.100;2023-03-01T00:51:07;0.60;99.90
55642;DHT22;41509;53.108;6.100;2023-03-01T00:53:34;0.60;99.90
55642;DHT22;41509;53.108;6.100;2023-03-01T00:56:00;0.60;99.90
55642;DHT22;41509;53.108;6.100;2023-03-01T00:58:26;0.50;99.90
55642;DHT22;41509;53.108;6.100;2023-03-01T01:00:51;0.50;99.90
55642;DHT22;41509;53.108;6.100;2023-03-01T01:03:21;0.50;99.90
55642;DHT22;41509;53.108;6.100;2023-03-01T01:05:46;0.50;99.90
55642;DHT22;41509;53.108;6.100;2023-03-01T01:08:12;0.50;99.90
55642;DHT22;41509;53.108;6.100;2023-03-01T01:10:38;0.50;99.90
55642;DHT22;41509;53.108;6.100;2023-03-01T01:13:03;0.50;99.90
55642;DHT22;41509;53.108;6.100;2023-03-01T01:15:31;0.50;99.90
55642;DHT22;41509;53.108;6.100;2023-03-01T01:17:58;0.50;99.90
55642;DHT22;41509;53.108;6.100;2023-03-01T01:20:24;0.50;99.90
55642;DHT22;41509;53.108;6.100;2023-03-01T01:22:49;0.60;99.90
55642;DHT22;41509;53.108;6.100;2023-03-01T01:25:16;0.50;99.90
55642;DHT22;41509;53.108;6.100;2023-03-01T01:27:42;0.50;99.90
55642;DHT22;41509;53.108;6.100;2023-03-01T01:30:08;0.50;99.90
55642;DHT22;41509;53.108;6.100;2023-03-01T01:32:33;0.50;99.90
55642;DHT22;41509;53.108;6.100;2023-03-01T01:34:59;0.50;99.90
55642;DHT22;41509;53.108;6.100;2023-03-01T01:37:25;0.40;99.90
55642;DHT22;41509;53.108;6.100;2023-03-01T01:39:59;0.40;99.90
55642;DHT22;41509;53.108;6.100;2023-03-01T01:42:26;0.40;99.90
55642;DHT22;41509;53.108;6.100;2023-03-01T01:47:59;0.30;99.90
55642;DHT22;41509;53.108;6.100;2023-03-01T01:50:26;0.30;99.90
55642;DHT22;41509;53.108;6.100;2023-03-01T01:52:53;0.30;99.90
55642;DHT22;41509;53.108;6.100;2023-03-01T01:55:24;0.20;99.90
55642;DHT22;41509;53.108;6.100;2023-03-01T01:57:54;0.20;99.90
55642;DHT22;41509;53.108;6.100;2023-03-01T02:00:27;0.20;99.90
55642;DHT22;41509;53.108;6.100;2023-03-01T02:02:59;0.20;99.90
55642;DHT22;41509;53.108;6.100;2023-03-01T02:08:03;0.20;99.90
55642;DHT22;41509;53.108;6.100;2023-03-01T02:10:29;0.20;99.90
55642;DHT22;41509;53.108;6.100;2023-03-01T02:13:02;0.20;99.90
55642;DHT22;41509;53.108;6.100;2023-03-01T02:15:35;0.10;99.90
55642;DHT22;41509;53.108;6.100;2023-03-01T02:18:02;0.20;99.90
55642;DHT22;41509;53.108;6.100;2023-03-01T02:23:16;0.10;99.90
55642;DHT22;41509;53.108;6.100;2023-03-01T02:25:52;0.10;99.90
55642;DHT22;41509;53.108;6.100;2023-03-01T02:30:48;0.20;99.90
55642;DHT22;41509;53.108;6.100;2023-03-01T02:33:35;0.20;99.90
55642;DHT22;41509;53.108;6.100;2023-03-01T02:36:08;0.20;99.90
55642;DHT22;41509;53.108;6.100;2023-03-01T02:38:34;0.10;99.90
55642;DHT22;41509;53.108;6.100;2023-03-01T02:41:01;0.10;99.90
55642;DHT22;41509;53.108;6.100;2023-03-01T02:43:30;0.20;99.90
55642;DHT22;41509;53.108;6.100;2023-03-01T02:45:59;0.10;99.90
55642;DHT22;41509;53.108;6.100;2023-03-01T02:48:27;0.10;99.90
55642;DHT22;41509;53.108;6.100;2023-03-01T02:51:10;0.10;99.90
55642;DHT22;41509;53.108;6.100;2023-03-01T02:54:14;0.10;99.90
55642;DHT22;41509;53.108;6.100;2023-03-01T02:56:43;0.00;99.90
55642;DHT22;41509;53.108;6.100;2023-03-01T02:59:09;0.00;99.90
55642;DHT22;41509;53.108;6.100;2023-03-01T03:01:36;0.00;99.90
55642;DHT22;41509;53.108;6.100;2023-03-01T03:04:11;0.00;99.90
55642;DHT22;41509;53.108;6.100;2023-03-01T03:06:43;-0.10;99.90
55642;DHT22;41509;53.108;6.100;2023-03-01T03:09:10;-0.10;99.90
55642;DHT22;41509;53.108;6.100;2023-03-01T03:11:36;-0.10;99.90
55642;DHT22;41509;53.108;6.100;2023-03-01T03:14:02;-0.10;99.90
55642;DHT22;41509;53.108;6.100;2023-03-01T03:16:28;-0.10;99.90
55642;DHT22;41509;53.108;6.100;2023-03-01T03:18:55;-0.20;99.90
55642;DHT22;41509;53.108;6.100;2023-03-01T03:21:31;-0.20;99.90
55642;DHT22;41509;53.108;6.100;2023-03-01T03:23:57;-0.20;99.90
55642;DHT22;41509;53.108;6.100;2023-03-01T03:26:23;-0.20;99.90
55642;DHT22;41509;53.108;6.100;2023-03-01T03:28:48;-0.10;99.90
55642;DHT22;41509;53.108;6.100;2023-03-01T03:31:14;-0.10;99.90
55642;DHT22;41509;53.108;6.100;2023-03-01T03:33:40;-0.10;99.90
55642;DHT22;41509;53.108;6.100;2023-03-01T03:36:05;-0.10;99.90
55642;DHT22;41509;53.108;6.100;2023-03-01T03:38:31;-0.10;99.90
55642;DHT22;41509;53.108;6.100;2023-03-01T03:41:03;-0.10;99.90
55642;DHT22;41509;53.108;6.100;2023-03-01T03:43:31;-0.10;99.90
55642;DHT22;41509;53.108;6.100;2023-03-01T03:45:57;-0.10;99.90
55642;DHT22;41509;53.108;6.100;2023-03-01T03:48:24;-0.10;99.90
55642;DHT22;41509;53.108;6.100;2023-03-01T03:50:50;-0.10;99.90
55642;DHT22;41509;53.108;6.100;2023-03-01T03:53:17;-0.10;99.90
55642;DHT22;41509;53.108;6.100;2023-03-01T03:55:43;-0.20;99.90
55642;DHT22;41509;53.108;6.100;2023-03-01T03:58:10;-0.20;99.90
55642;DHT22;41509;53.108;6.100;2023-03-01T04:00:40;-0.30;99.90
55642;DHT22;41509;53.108;6.100;2023-03-01T04:03:07;-0.30;99.90
55642;DHT22;41509;53.108;6.100;2023-03-01T04:05:33;-0.40;99.90
55642;DHT22;41509;53.108;6.100;2023-03-01T04:07:59;-0.40;99.90
55642;DHT22;41509;53.108;6.100;2023-03-01T04:10:29;-0.40;99.90
55642;DHT22;41509;53.108;6.100;2023-03-01T04:12:56;-0.50;99.90
55642;DHT22;41509;53.108;6.100;2023-03-01T04:15:23;-0.60;99.90
55642;DHT22;41509;53.108;6.100;2023-03-01T04:17:50;-0.60;99.90
55642;DHT22;41509;53.108;6.100;2023-03-01T04:20:25;-0.60;99.90
55642;DHT22;41509;53.108;6.100;2023-03-01T04:23:05;-0.60;99.90
55642;DHT22;41509;53.108;6.100;2023-03-01T04:25:58;-0.60;99.90
55642;DHT22;41509;53.108;6.100;2023-03-01T04:28:27;-0.60;99.90
55642;DHT22;41509;53.108;6.100;2023-03-01T04:30:55;-0.70;99.90
55642;DHT22;41509;53.108;6.100;2023-03-01T04:33:21;-0.70;99.90
55642;DHT22;41509;53.108;6.100;2023-03-01T04:35:48;-0.70;99.90
55642;DHT22;41509;53.108;6.100;2023-03-01T04:38:15;-0.70;99.90
55642;DHT22;41509;53.108;6.100;2023-03-01T04:40:41;-0.70;99.90
55642;DHT22;41509;53.108;6.100;2023-03-01T04:43:09;-0.70;99.90
55642;DHT22;41509;53.108;6.100;2023-03-01T04:45:34;-0.70;99.90
55642;DHT22;41509;53.108;6.100;2023-03-01T04:48:00;-0.80;99.90
55642;DHT22;41509;53.108;6.100;2023-03-01T04:50:26;-0.80;99.90
55642;DHT22;41509;53.108;6.100;2023-03-01T04:52:52;-0.80;99.90
55642;DHT22;41509;53.108;6.100;2023-03-01T04:55:18;-0.80;99.90
55642;DHT22;41509;53.108;6.100;2023-03-01T04:57:43;-0.90;99.90
55642;DHT22;41509;53.108;6.100;2023-03-01T05:00:13;-0.90;99.90
55642;DHT22;41509;53.108;6.100;2023-03-01T05:02:56;-1.00;99.90
55642;DHT22;41509;53.108;6.100;2023-03-01T05:05:25;-0.90;99.90
55642;DHT22;41509;53.108;6.100;2023-03-01T05:07:56;-1.00;99.90
55642;DHT22;41509;53.108;6.100;2023-03-01T05:10:23;-1.00;99.90
55642;DHT22;41509;53.108;6.100;2023-03-01T05:12:48;-1.00;99.90
55642;DHT22;41509;53.108;6.100;2023-03-01T05:15:14;-1.10;99.90
55642;DHT22;41509;53.108;6.100;2023-03-01T05:17:40;-1.00;99.90
55642;DHT22;41509;53.108;6.100;2023-03-01T05:20:06;-1.10;99.90
55642;DHT22;41509;53.108;6.100;2023-03-01T05:22:35;-1.10;99.90
55642;DHT22;41509;53.108;6.100;2023-03-01T05:25:02;-1.10;99.90
55642;DHT22;41509;53.108;6.100;2023-03-01T05:27:28;-1.20;99.90
55642;DHT22;41509;53.108;6.100;2023-03-01T05:29:55;-1.20;99.90
55642;DHT22;41509;53.108;6.100;2023-03-01T05:32:21;-1.20;99.90
55642;DHT22;41509;53.108;6.100;2023-03-01T05:34:46;-1.20;99.90
55642;DHT22;41509;53.108;6.100;2023-03-01T05:37:13;-1.20;99.90
55642;DHT22;41509;53.108;6.100;2023-03-01T05:39:39;-1.30;99.90
55642;DHT22;41509;53.108;6.100;2023-03-01T05:42:05;-1.30;99.90
55642;DHT22;41509;53.108;6.100;2023-03-01T05:44:30;-1.30;99.90
55642;DHT22;41509;53.108;6.100;2023-03-01T05:46:56;-1.30;99.90
55642;DHT22;41509;53.108;6.100;2023-03-01T05:49:22;-1.30;99.90
55642;DHT22;41509;53.108;6.100;2023-03-01T05:51:50;-1.30;99.90
55642;DHT22;41509;53.108;6.100;2023-03-01T05:54:16;-1.30;99.90
55642;DHT22;41509;53.108;6.100;2023-03-01T05:56:42;-1.30;99.90
55642;DHT22;41509;53.108;6.100;2023-03-01T05:59:08;-1.30;99.90
55642;DHT22;41509;53.108;6.100;2023-03-01T06:01:34;-1.30;99.90
55642;DHT22;41509;53.108;6.100;2023-03-01T06:04:00;-1.30;99.90
55642;DHT22;41509;53.108;6.100;2023-03-01T06:06:26;-1.30;99.90
55642;DHT22;41509;53.108;6.100;2023-03-01T06:08:52;-1.30;99.90
55642;DHT22;41509;53.108;6.100;2023-03-01T06:11:18;-1.30;99.90
55642;DHT22;41509;53.108;6.100;2023-03-01T06:13:44;-1.30;99.90
55642;DHT22;41509;53.108;6.100;2023-03-01T06:16:10;-1.30;99.90
55642;DHT22;41509;53.108;6.100;2023-03-01T06:18:37;-1.30;99.90
55642;DHT22;41509;53.108;6.100;2023-03-01T06:21:02;-1.30;99.90
55642;DHT22;41509;53.108;6.100;2023-03-01T06:23:28;-1.30;99.90
55642;DHT22;41509;53.108;6.100;2023-03-01T06:25:54;-1.40;99.90
55642;DHT22;41509;53.108;6.100;2023-03-01T06:28:20;-1.40;99.90
55642;DHT22;41509;53.108;6.100;2023-03-01T06:30:46;-1.40;99.90
55642;DHT22;41509;53.108;6.100;2023-03-01T06:33:11;-1.40;99.90
55642;DHT22;41509;53.108;6.100;2023-03-01T06:35:37;-1.40;99.90
55642;DHT22;41509;53.108;6.100;2023-03-01T06:38:05;-1.50;99.90
55642;DHT22;41509;53.108;6.100;2023-03-01T06:40:31;-1.40;99.90
55642;DHT22;41509;53.108;6.100;2023-03-01T06:42:58;-1.50;99.90
55642;DHT22;41509;53.108;6.100;2023-03-01T06:45:24;-1.40;99.90
55642;DHT22;41509;53.108;6.100;2023-03-01T06:47:50;-1.50;99.90
55642;DHT22;41509;53.108;6.100;2023-03-01T06:50:16;-1.50;99.90
55642;DHT22;41509;53.108;6.100;2023-03-01T06:52:42;-1.50;99.90
55642;DHT22;41509;53.108;6.100;2023-03-01T06:55:10;-1.50;99.90
55642;DHT22;41509;53.108;6.100;2023-03-01T06:57:36;-1.50;99.90
55642;DHT22;41509;53.108;6.100;2023-03-01T07:00:05;-1.50;99.90
55642;DHT22;41509;53.108;6.100;2023-03-01T07:02:31;-1.50;99.90
55642;DHT22;41509;53.108;6.100;2023-03-01T07:04:57;-1.50;99.90
55642;DHT22;41509;53.108;6.100;2023-03-01T07:07:22;-1.50;99.90
55642;DHT22;41509;53.108;6.100;2023-03-01T07:09:49;-1.40;99.90
55642;DHT22;41509;53.108;6.100;2023-03-01T07:12:15;-1.40;99.90
55642;DHT22;41509;53.108;6.100;2023-03-01T07:14:40;-1.40;99.90
55642;DHT22;41509;53.108;6.100;2023-03-01T07:17:06;-1.40;99.90
55642;DHT22;41509;53.108;6.100;2023-03-01T07:19:32;-1.30;99.90
55642;DHT22;41509;53.108;6.100;2023-03-01T07:21:57;-1.30;99.90
55642;DHT22;41509;53.108;6.100;2023-03-01T07:24:23;-1.30;99.90
55642;DHT22;41509;53.108;6.100;2023-03-01T07:26:50;-1.20;99.90
55642;DHT22;41509;53.108;6.100;2023-03-01T07:29:16;-1.10;99.90
55642;DHT22;41509;53.108;6.100;2023-03-01T07:31:42;-1.10;99.90
55642;DHT22;41509;53.108;6.100;2023-03-01T07:34:08;-1.00;99.90
55642;DHT22;41509;53.108;6.100;2023-03-01T07:36:33;-1.00;99.90
55642;DHT22;41509;53.108;6.100;2023-03-01T07:38:59;-0.90;99.90
55642;DHT22;41509;53.108;6.100;2023-03-01T07:41:27;-0.90;99.90
55642;DHT22;41509;53.108;6.100;2023-03-01T07:43:53;-0.80;99.90
55642;DHT22;41509;53.108;6.100;2023-03-01T07:46:19;-0.70;99.90
55642;DHT22;41509;53.108;6.100;2023-03-01T07:48:44;-0.60;99.90
55642;DHT22;41509;53.108;6.100;2023-03-01T07:51:10;-0.50;99.90
55642;DHT22;41509;53.108;6.100;2023-03-01T07:53:36;-0.50;99.90
55642;DHT22;41509;53.108;6.100;2023-03-01T07:58:33;-0.30;99.90
55642;DHT22;41509;53.108;6.100;2023-03-01T08:01:05;-0.20;99.90
55642;DHT22;41509;53.108;6.100;2023-03-01T08:03:31;-0.10;99.90
55642;DHT22;41509;53.108;6.100;2023-03-01T08:05:59;0.00;99.90
55642;DHT22;41509;53.108;6.100;2023-03-01T08:08:25;0.10;99.90
55642;DHT22;41509;53.108;6.100;2023-03-01T08:10:51;0.20;99.90
55642;DHT22;41509;53.108;6.100;2023-03-01T08:13:16;0.30;99.90
55642;DHT22;41509;53.108;6.100;2023-03-01T08:15:50;0.40;99.90
55642;DHT22;41509;53.108;6.100;2023-03-01T08:18:17;0.60;99.90
55642;DHT22;41509;53.108;6.100;2023-03-01T08:20:43;0.70;99.90
55642;DHT22;41509;53.108;6.100;2023-03-01T08:23:08;0.80;99.90
55642;DHT22;41509;53.108;6.100;2023-03-01T08:25:34;0.90;99.90
55642;DHT22;41509;53.108;6.100;2023-03-01T08:27:59;1.00;99.90
55642;DHT22;41509;53.108;6.100;2023-03-01T08:30:25;1.10;99.90
55642;DHT22;41509;53.108;6.100;2023-03-01T08:32:51;1.20;99.90
55642;DHT22;41509;53.108;6.100;2023-03-01T08:35:17;1.30;99.90
55642;DHT22;41509;53.108;6.100;2023-03-01T08:37:43;1.40;99.90
55642;DHT22;41509;53.108;6.100;2023-03-01T08:40:09;1.50;99.90
55642;DHT22;41509;53.108;6.100;2023-03-01T08:42:36;1.60;99.90
55642;DHT22;41509;53.108;6.100;2023-03-01T08:45:03;1.70;99.90
55642;DHT22;41509;53.108;6.100;2023-03-01T08:47:28;1.70;99.90
55642;DHT22;41509;53.108;6.100;2023-03-01T08:49:54;1.80;99.90
55642;DHT22;41509;53.108;6.100;2023-03-01T08:52:20;1.90;99.90
55642;DHT22;41509;53.108;6.100;2023-03-01T08:54:49;2.00;99.90
55642;DHT22;41509;53.108;6.100;2023-03-01T08:57:15;2.10;99.90
55642;DHT22;41509;53.108;6.100;2023-03-01T08:59:41;2.10;99.90
55642;DHT22;41509;53.108;6.100;2023-03-01T09:02:12;2.20;99.90
55642;DHT22;41509;53.108;6.100;2023-03-01T09:04:38;2.40;99.90
55642;DHT22;41509;53.108;6.100;2023-03-01T09:07:04;2.50;99.90
55642;DHT22;41509;53.108;6.100;2023-03-01T09:09:29;2.50;99.90
55642;DHT22;41509;53.108;6.100;2023-03-01T09:11:55;2.60;99.90
55642;DHT22;41509;53.108;6.100;2023-03-01T09:14:20;2.70;99.90
55642;DHT22;41509;53.108;6.100;2023-03-01T09:16:46;2.80;99.90
55642;DHT22;41509;53.108;6.100;2023-03-01T09:19:13;2.90;99.90
55642;DHT22;41509;53.108;6.100;2023-03-01T09:21:39;3.00;99.90
55642;DHT22;41509;53.108;6.100;2023-03-01T09:24:05;3.10;99.90
55642;DHT22;41509;53.108;6.100;2023-03-01T09:26:30;3.20;99.90
55642;DHT22;41509;53.108;6.100;2023-03-01T09:28:56;3.30;99.90
55642;DHT22;41509;53.108;6.100;2023-03-01T09:31:23;3.30;99.90
55642;DHT22;41509;53.108;6.100;2023-03-01T09:33:51;3.40;99.90
55642;DHT22;41509;53.108;6.100;2023-03-01T09:36:20;3.50;99.90
55642;DHT22;41509;53.108;6.100;2023-03-01T09:38:47;3.60;99.90
55642;DHT22;41509;53.108;6.100;2023-03-01T09:44:21;3.80;99.90
55642;DHT22;41509;53.108;6.100;2023-03-01T09:46:48;3.90;99.90
55642;DHT22;41509;53.108;6.100;2023-03-01T09:49:20;4.00;99.90
55642;DHT22;41509;53.108;6.100;2023-03-01T09:54:30;4.30;99.90
55642;DHT22;41509;53.108;6.100;2023-03-01T09:56:59;4.40;99.90
55642;DHT22;41509;53.108;6.100;2023-03-01T10:08:50;4.90;99.90
55642;DHT22;41509;53.108;6.100;2023-03-01T10:10:59;5.10;99.90
55642;DHT22;41509;53.108;6.100;2023-03-01T10:16:13;5.40;99.90
55642;DHT22;41509;53.108;6.100;2023-03-01T10:18:41;5.50;99.90
55642;DHT22;41509;53.108;6.100;2023-03-01T10:23:38;5.70;99.90
55642;DHT22;41509;53.108;6.100;2023-03-01T10:31:49;6.20;99.90
55642;DHT22;41509;53.108;6.100;2023-03-01T10:36:50;6.40;99.90
55642;DHT22;41509;53.108;6.100;2023-03-01T10:39:23;6.50;99.90
55642;DHT22;41509;53.108;6.100;2023-03-01T10:42:01;6.60;99.90
55642;DHT22;41509;53.108;6.100;2023-03-01T10:44:45;6.70;99.90
55642;DHT22;41509;53.108;6.100;2023-03-01T10:47:20;6.80;99.90
55642;DHT22;41509;53.108;6.100;2023-03-01T10:49:54;7.00;99.90
55642;DHT22;41509;53.108;6.100;2023-03-01T10:52:22;7.10;99.90
55642;DHT22;41509;53.108;6.100;2023-03-01T10:57:39;7.30;99.90
55642;DHT22;41509;53.108;6.100;2023-03-01T11:00:21;7.40;99.90
55642;DHT22;41509;53.108;6.100;2023-03-01T11:03:11;7.50;99.90
55642;DHT22;41509;53.108;6.100;2023-03-01T11:05:54;7.50;99.90
55642;DHT22;41509;53.108;6.100;2023-03-01T11:08:32;7.60;99.90
55642;DHT22;41509;53.108;6.100;2023-03-01T11:14:16;7.80;99.90
55642;DHT22;41509;53.108;6.100;2023-03-01T11:16:45;7.90;99.90
55642;DHT22;41509;53.108;6.100;2023-03-01T11:24:17;8.20;99.90
55642;DHT22;41509;53.108;6.100;2023-03-01T11:26:50;8.20;99.90
55642;DHT22;41509;53.108;6.100;2023-03-01T11:29:43;8.30;99.90
55642;DHT22;41509;53.108;6.100;2023-03-01T11:32:09;8.40;99.90
55642;DHT22;41509;53.108;6.100;2023-03-01T11:34:54;8.40;99.90
55642;DHT22;41509;53.108;6.100;2023-03-01T11:37:31;8.50;99.90
55642;DHT22;41509;53.108;6.100;2023-03-01T11:40:17;8.50;99.90
55642;DHT22;41509;53.108;6.100;2023-03-01T11:43:20;8.60;99.90
55642;DHT22;41509;53.108;6.100;2023-03-01T12:06:26;9.10;99.90
55642;DHT22;41509;53.108;6.100;2023-03-01T12:11:07;9.20;99.90
55642;DHT22;41509;53.108;6.100;2023-03-01T12:18:55;9.50;99.90
55642;DHT22;41509;53.108;6.100;2023-03-01T12:21:49;9.60;99.90
55642;DHT22;41509;53.108;6.100;2023-03-01T12:27:28;9.90;99.90
55642;DHT22;41509;53.108;6.100;2023-03-01T12:32:50;10.00;99.90
55642;DHT22;41509;53.108;6.100;2023-03-01T12:35:51;10.00;99.90
55642;DHT22;41509;53.108;6.100;2023-03-01T12:49:51;10.30;99.90
55642;DHT22;41509;53.108;6.100;2023-03-01T12:52:39;10.40;99.90
55642;DHT22;41509;53.108;6.100;2023-03-01T12:55:29;10.50;99.90
55642;DHT22;41509;53.108;6.100;2023-03-01T12:58:06;10.50;99.90
55642;DHT22;41509;53.108;6.100;2023-03-01T13:03:45;10.50;99.90
55642;DHT22;41509;53.108;6.100;2023-03-01T13:06:22;10.60;99.90
55642;DHT22;41509;53.108;6.100;2023-03-01T13:12:14;10.60;99.40
55642;DHT22;41509;53.108;6.100;2023-03-01T13:14:54;10.60;99.90
55642;DHT22;41509;53.108;6.100;2023-03-01T13:17:32;10.60;99.40
55642;DHT22;41509;53.108;6.100;2023-03-01T13:19:58;10.60;99.90
55642;DHT22;41509;53.108;6.100;2023-03-01T13:22:27;10.60;99.60
55642;DHT22;41509;53.108;6.100;2023-03-01T13:25:02;10.70;99.50
55642;DHT22;41509;53.108;6.100;2023-03-01T13:27:28;10.80;98.80
55642;DHT22;41509;53.108;6.100;2023-03-01T13:29:59;10.90;99.30
55642;DHT22;41509;53.108;6.100;2023-03-01T13:32:33;11.00;97.70
55642;DHT22;41509;53.108;6.100;2023-03-01T13:37:42;11.10;98.00
55642;DHT22;41509;53.108;6.100;2023-03-01T13:42:49;11.20;96.60
55642;DHT22;41509;53.108;6.100;2023-03-01T13:47:45;11.10;97.20
55642;DHT22;41509;53.108;6.100;2023-03-01T13:50:20;11.30;97.20
55642;DHT22;41509;53.108;6.100;2023-03-01T13:52:56;11.30;96.90
55642;DHT22;41509;53.108;6.100;2023-03-01T13:55:38;11.40;96.30
55642;DHT22;41509;53.108;6.100;2023-03-01T13:58:24;11.40;96.90
55642;DHT22;41509;53.108;6.100;2023-03-01T14:00:57;11.50;96.30
55642;DHT22;41509;53.108;6.100;2023-03-01T14:03:24;11.50;95.90
55642;DHT22;41509;53.108;6.100;2023-03-01T14:06:01;11.50;96.50
55642;DHT22;41509;53.108;6.100;2023-03-01T14:08:29;11.50;95.70
55642;DHT22;41509;53.108;6.100;2023-03-01T14:21:35;11.40;95.50
55642;DHT22;41509;53.108;6.100;2023-03-01T14:24:02;11.40;95.30
55642;DHT22;41509;53.108;6.100;2023-03-01T14:26:28;11.40;95.50
55642;DHT22;41509;53.108;6.100;2023-03-01T14:28:55;11.30;93.90
55642;DHT22;41509;53.108;6.100;2023-03-01T14:31:39;11.20;95.50
55642;DHT22;41509;53.108;6.100;2023-03-01T14:34:05;11.10;94.30
55642;DHT22;41509;53.108;6.100;2023-03-01T14:36:33;11.00;95.20
55642;DHT22;41509;53.108;6.100;2023-03-01T14:38:59;10.80;94.70
55642;DHT22;41509;53.108;6.100;2023-03-01T14:41:33;10.70;94.40
55642;DHT22;41509;53.108;6.100;2023-03-01T14:44:14;10.60;94.70
55642;DHT22;41509;53.108;6.100;2023-03-01T14:46:43;10.50;94.60
55642;DHT22;41509;53.108;6.100;2023-03-01T14:49:17;10.40;95.40
55642;DHT22;41509;53.108;6.100;2023-03-01T14:54:43;10.30;94.60
55642;DHT22;41509;53.108;6.100;2023-03-01T14:59:42;10.10;95.60
55642;DHT22;41509;53.108;6.100;2023-03-01T15:02:15;10.00;95.30
55642;DHT22;41509;53.108;6.100;2023-03-01T15:04:45;9.90;95.70
55642;DHT22;41509;53.108;6.100;2023-03-01T15:07:13;9.70;95.60
55642;DHT22;41509;53.108;6.100;2023-03-01T15:09:40;9.70;95.70
55642;DHT22;41509;53.108;6.100;2023-03-01T15:14:57;9.50;96.00
55642;DHT22;41509;53.108;6.100;2023-03-01T15:17:32;9.30;96.20
55642;DHT22;41509;53.108;6.100;2023-03-01T15:20:00;9.20;96.30
55642;DHT22;41509;53.108;6.100;2023-03-01T15:22:26;9.00;96.40
55642;DHT22;41509;53.108;6.100;2023-03-01T15:24:52;8.90;97.00
55642;DHT22;41509;53.108;6.100;2023-03-01T15:27:21;8.90;97.30
55642;DHT22;41509;53.108;6.100;2023-03-01T15:29:56;8.80;97.80
55642;DHT22;41509;53.108;6.100;2023-03-01T15:32:29;8.70;98.20
55642;DHT22;41509;53.108;6.100;2023-03-01T15:34:59;8.70;98.50
55642;DHT22;41509;53.108;6.100;2023-03-01T15:37:44;8.50;98.40
55642;DHT22;41509;53.108;6.100;2023-03-01T15:40:26;8.50;98.60
55642;DHT22;41509;53.108;6.100;2023-03-01T15:43:04;8.40;98.90
55642;DHT22;41509;53.108;6.100;2023-03-01T15:45:32;8.30;99.20
55642;DHT22;41509;53.108;6.100;2023-03-01T15:48:19;8.30;99.50
55642;DHT22;41509;53.108;6.100;2023-03-01T15:50:54;8.20;99.90
55642;DHT22;41509;53.108;6.100;2023-03-01T15:53:20;8.10;99.90
55642;DHT22;41509;53.108;6.100;2023-03-01T15:55:46;8.10;99.90
55642;DHT22;41509;53.108;6.100;2023-03-01T15:58:18;8.00;99.90
55642;DHT22;41509;53.108;6.100;2023-03-01T16:00:46;7.90;99.90
55642;DHT22;41509;53.108;6.100;2023-03-01T16:03:14;7.90;99.90
55642;DHT22;41509;53.108;6.100;2023-03-01T16:05:47;7.80;99.90
55642;DHT22;41509;53.108;6.100;2023-03-01T16:08:13;7.70;99.90
55642;DHT22;41509;53.108;6.100;2023-03-01T16:10:40;7.70;99.90
55642;DHT22;41509;53.108;6.100;2023-03-01T16:13:07;7.60;99.90
55642;DHT22;41509;53.108;6.100;2023-03-01T16:15:33;7.60;99.90
55642;DHT22;41509;53.108;6.100;2023-03-01T16:18:03;7.60;99.90
55642;DHT22;41509;53.108;6.100;2023-03-01T16:20:31;7.50;99.90
55642;DHT22;41509;53.108;6.100;2023-03-01T16:23:05;7.40;99.90
55642;DHT22;41509;53.108;6.100;2023-03-01T16:25:31;7.40;99.90
55642;DHT22;41509;53.108;6.100;2023-03-01T16:27:58;7.30;99.90
55642;DHT22;41509;53.108;6.100;2023-03-01T16:30:26;7.30;99.90
55642;DHT22;41509;53.108;6.100;2023-03-01T16:32:52;7.20;99.90
55642;DHT22;41509;53.108;6.100;2023-03-01T16:35:20;7.20;99.90
55642;DHT22;41509;53.108;6.100;2023-03-01T16:37:46;7.10;99.90
55642;DHT22;41509;53.108;6.100;2023-03-01T16:40:26;7.00;99.90
55642;DHT22;41509;53.108;6.100;2023-03-01T16:42:54;7.00;99.90
55642;DHT22;41509;53.108;6.100;2023-03-01T16:45:20;6.90;99.90
55642;DHT22;41509;53.108;6.100;2023-03-01T16:47:46;6.90;99.90
55642;DHT22;41509;53.108;6.100;2023-03-01T16:50:12;6.80;99.90
55642;DHT22;41509;53.108;6.100;2023-03-01T16:52:38;6.70;99.90
55642;DHT22;41509;53.108;6.100;2023-03-01T16:55:04;6.70;99.90
55642;DHT22;41509;53.108;6.100;2023-03-01T16:57:31;6.60;99.90
55642;DHT22;41509;53.108;6.100;2023-03-01T16:59:58;6.60;99.90
55642;DHT22;41509;53.108;6.100;2023-03-01T17:02:24;6.50;99.90
55642;DHT22;41509;53.108;6.100;2023-03-01T17:05:09;6.50;99.90
55642;DHT22;41509;53.108;6.100;2023-03-01T17:07:37;6.40;99.90
55642;DHT22;41509;53.108;6.100;2023-03-01T17:10:08;6.30;99.90
55642;DHT22;41509;53.108;6.100;2023-03-01T17:12:34;6.30;99.90
55642;DHT22;41509;53.108;6.100;2023-03-01T17:15:00;6.20;99.90
55642;DHT22;41509;53.108;6.100;2023-03-01T17:17:26;6.20;99.90
55642;DHT22;41509;53.108;6.100;2023-03-01T17:19:52;6.10;99.90
55642;DHT22;41509;53.108;6.100;2023-03-01T17:22:23;6.00;99.90
55642;DHT22;41509;53.108;6.100;2023-03-01T17:24:48;6.00;99.90
55642;DHT22;41509;53.108;6.100;2023-03-01T17:27:14;5.90;99.90
55642;DHT22;41509;53.108;6.100;2023-03-01T17:29:40;5.80;99.90
55642;DHT22;41509;53.108;6.100;2023-03-01T17:32:06;5.80;99.90
55642;DHT22;41509;53.108;6.100;2023-03-01T17:34:32;5.70;99.90
55642;DHT22;41509;53.108;6.100;2023-03-01T17:37:00;5.70;99.90
55642;DHT22;41509;53.108;6.100;2023-03-01T17:39:26;5.60;99.90
55642;DHT22;41509;53.108;6.100;2023-03-01T17:41:56;5.50;99.90
55642;DHT22;41509;53.108;6.100;2023-03-01T17:44:27;5.50;99.90
55642;DHT22;41509;53.108;6.100;2023-03-01T17:46:53;5.50;99.90
55642;DHT22;41509;53.108;6.100;2023-03-01T17:49:18;5.40;99.90
55642;DHT22;41509;53.108;6.100;2023-03-01T17:51:44;5.40;99.90
55642;DHT22;41509;53.108;6.100;2023-03-01T17:54:12;5.30;99.90
55642;DHT22;41509;53.108;6.100;2023-03-01T17:56:37;5.20;99.90
55642;DHT22;41509;53.108;6.100;2023-03-01T17:59:04;5.20;99.90
55642;DHT22;41509;53.108;6.100;2023-03-01T18:01:30;5.10;99.90
55642;DHT22;41509;53.108;6.100;2023-03-01T18:03:56;5.10;99.90